createdAt,value
2022-10-08T00:00:16.558Z,11.60
2022-10-08T00:01:19.409Z,10.10
2022-10-08T00:02:22.573Z,10.00
2022-10-08T00:03:26.771Z,9.50
2022-10-08T00:04:29.514Z,10.60
2022-10-08T00:05:32.777Z,10.80
2022-10-08T00:06:35.074Z,9.80
2022-10-08T00:07:37.204Z,9.50
2022-10-08T00:08:40.735Z,7.80
2022-10-08T00:09:42.847Z,10.20
2022-10-08T00:10:48.840Z,11.30
2022-10-08T00:11:52.157Z,10.80
2022-10-08T00:12:54.817Z,11.00
2022-10-08T00:13:57.152Z,8.50
2022-10-08T00:14:59.293Z,9.10
2022-10-08T00:16:01.549Z,10.80
2022-10-08T00:17:03.899Z,11.60
2022-10-08T00:18:06.375Z,10.20
2022-10-08T00:20:23.186Z,5.90
2022-10-08T00:22:42.354Z,11.70
2022-10-08T00:23:46.027Z,11.20
2022-10-08T00:24:49.445Z,10.90
2022-10-08T00:25:51.952Z,11.70
2022-10-08T00:26:54.156Z,10.90
2022-10-08T00:27:57.837Z,12.00
2022-10-08T00:29:04.657Z,9.73
2022-10-08T00:30:08.023Z,6.80
2022-10-08T00:31:12.822Z,10.00
2022-10-08T00:32:15.230Z,8.90
2022-10-08T00:33:17.425Z,10.60
2022-10-08T00:34:20.987Z,10.50
2022-10-08T00:35:23.153Z,9.40
2022-10-08T00:36:27.503Z,11.10
2022-10-08T00:37:30.250Z,8.70
2022-10-08T00:38:32.688Z,10.10
2022-10-08T00:39:34.833Z,11.00
2022-10-08T00:40:44.616Z,10.20
2022-10-08T00:41:49.085Z,9.80
2022-10-08T00:42:51.411Z,11.40
2022-10-08T00:43:55.649Z,10.30
2022-10-08T00:45:00.626Z,8.10
2022-10-08T00:46:03.432Z,11.50
2022-10-08T00:47:08.923Z,9.27
2022-10-08T00:48:17.329Z,10.60
2022-10-08T00:49:20.499Z,11.30
2022-10-08T00:50:32.326Z,12.10
2022-10-08T00:51:35.940Z,11.40
2022-10-08T00:53:55.615Z,9.50
2022-10-08T00:54:58.836Z,10.50
2022-10-08T00:56:02.078Z,9.90
2022-10-08T00:57:05.709Z,10.90
2022-10-08T00:58:14.993Z,12.20
2022-10-08T00:59:17.306Z,9.60
2022-10-08T01:00:22.203Z,11.27
2022-10-08T01:01:25.670Z,3.50
2022-10-08T01:02:28.387Z,10.50
2022-10-08T01:03:31.047Z,10.55
2022-10-08T01:04:33.534Z,9.80
2022-10-08T01:05:42.093Z,9.70
2022-10-08T01:08:27.678Z,8.00
2022-10-08T01:09:45.753Z,9.20
2022-10-08T01:10:54.867Z,11.60
2022-10-08T01:12:09.690Z,8.90
2022-10-08T01:13:35.350Z,10.00
2022-10-08T01:14:54.790Z,11.00
2022-10-08T01:16:03.824Z,9.60
2022-10-08T01:17:10.833Z,9.60
2022-10-08T01:19:55.538Z,9.10
2022-10-08T01:21:09.143Z,9.50
2022-10-08T01:22:31.668Z,10.40
2022-10-08T01:23:54.995Z,9.10
2022-10-08T01:25:00.103Z,10.10
2022-10-08T01:26:21.634Z,10.30
2022-10-08T01:27:41.778Z,9.60
2022-10-08T01:28:47.258Z,10.50
2022-10-08T01:29:49.607Z,9.50
2022-10-08T01:31:01.412Z,10.30
2022-10-08T01:32:15.975Z,6.70
2022-10-08T01:33:24.454Z,8.60
2022-10-08T01:35:52.738Z,9.70
2022-10-08T01:36:56.431Z,5.40
2022-10-08T01:38:00.587Z,10.45
2022-10-08T01:39:05.170Z,10.20
2022-10-08T01:40:11.635Z,10.60
2022-10-08T01:41:13.935Z,10.10
2022-10-08T01:42:16.619Z,9.70
2022-10-08T01:43:20.741Z,9.40
2022-10-08T01:46:01.128Z,9.20
2022-10-08T01:47:04.830Z,9.30
2022-10-08T01:48:10.375Z,9.70
2022-10-08T01:49:15.440Z,11.00
2022-10-08T01:51:35.396Z,9.30
2022-10-08T01:52:56.044Z,4.70
2022-10-08T01:53:59.514Z,9.10
2022-10-08T01:55:03.360Z,9.90
2022-10-08T01:56:08.351Z,9.80
2022-10-08T01:57:11.947Z,9.80
2022-10-08T01:58:16.123Z,9.30
2022-10-08T01:59:40.995Z,9.00
2022-10-08T02:00:43.315Z,10.10
2022-10-08T02:03:13.296Z,9.40
2022-10-08T02:04:16.766Z,9.90
2022-10-08T02:05:18.945Z,9.50
2022-10-08T02:06:21.185Z,10.30
2022-10-08T02:07:26.248Z,8.91
2022-10-08T02:08:29.321Z,9.70
2022-10-08T02:09:33.594Z,8.00
2022-10-08T02:10:36.053Z,9.50
2022-10-08T02:11:38.178Z,8.80
2022-10-08T02:12:41.164Z,10.20
2022-10-08T02:13:43.451Z,9.90
2022-10-08T02:14:47.979Z,10.40
2022-10-08T02:15:53.953Z,9.50
2022-10-08T02:17:09.239Z,8.50
2022-10-08T02:18:17.812Z,9.70
2022-10-08T02:19:40.177Z,9.00
2022-10-08T02:22:00.318Z,9.80
2022-10-08T02:23:15.814Z,8.90
2022-10-08T02:24:22.355Z,8.80
2022-10-08T02:26:54.108Z,9.20
2022-10-08T02:29:23.902Z,9.70
2022-10-08T02:30:27.660Z,9.00
2022-10-08T02:31:36.576Z,10.80
2022-10-08T02:32:59.646Z,9.80
2022-10-08T02:35:50.633Z,8.90
2022-10-08T02:37:09.054Z,9.70
2022-10-08T02:39:38.936Z,9.50
2022-10-08T02:40:43.776Z,10.50
2022-10-08T02:41:51.603Z,9.50
2022-10-08T02:42:56.006Z,8.50
2022-10-08T02:43:59.824Z,9.20
2022-10-08T02:45:07.658Z,8.70
2022-10-08T02:47:26.682Z,9.80
2022-10-08T02:48:31.969Z,5.60
2022-10-08T02:49:39.513Z,9.70
2022-10-08T02:50:41.781Z,9.30
2022-10-08T02:52:58.486Z,9.70
2022-10-08T02:54:03.737Z,9.60
2022-10-08T02:55:15.654Z,8.00
2022-10-08T02:56:25.003Z,8.40
2022-10-08T02:57:36.304Z,9.20
2022-10-08T02:58:38.505Z,8.50
2022-10-08T02:59:40.900Z,9.10
2022-10-08T03:01:05.061Z,9.20
2022-10-08T03:02:08.375Z,8.70
2022-10-08T03:03:14.622Z,8.90
2022-10-08T03:05:32.146Z,7.00
2022-10-08T03:06:36.112Z,9.90
2022-10-08T03:07:39.560Z,7.30
2022-10-08T03:08:43.774Z,9.27
2022-10-08T03:09:46.485Z,9.30
2022-10-08T03:10:49.782Z,8.82
2022-10-08T03:11:53.749Z,9.70
2022-10-08T03:13:00.680Z,8.50
2022-10-08T03:14:04.255Z,10.20
2022-10-08T03:15:09.316Z,9.40
2022-10-08T03:16:13.102Z,7.40
2022-10-08T03:17:22.539Z,7.00
2022-10-08T03:18:24.677Z,5.20
2022-10-08T03:19:27.030Z,10.20
2022-10-08T03:20:30.840Z,9.90
2022-10-08T03:21:33.193Z,9.10
2022-10-08T03:22:35.568Z,9.70
2022-10-08T03:23:38.608Z,9.50
2022-10-08T03:24:40.650Z,8.60
2022-10-08T03:25:44.659Z,8.73
2022-10-08T03:26:46.946Z,8.80
2022-10-08T03:27:49.962Z,9.80
2022-10-08T03:28:52.539Z,9.30
2022-10-08T03:29:54.725Z,8.40
2022-10-08T03:30:58.215Z,9.70
2022-10-08T03:32:00.537Z,8.40
2022-10-08T03:33:02.636Z,7.90
2022-10-08T03:34:04.812Z,9.20
2022-10-08T03:35:07.513Z,9.00
2022-10-08T03:36:10.840Z,9.10
2022-10-08T03:37:12.990Z,8.10
2022-10-08T03:38:15.362Z,8.60
2022-10-08T03:39:17.458Z,8.90
2022-10-08T03:40:20.895Z,9.64
2022-10-08T03:41:23.170Z,7.55
2022-10-08T03:42:25.326Z,9.30
2022-10-08T03:43:32.855Z,7.80
2022-10-08T03:44:35.072Z,8.40
2022-10-08T03:45:37.290Z,8.80
2022-10-08T03:46:40.561Z,8.50
2022-10-08T03:47:42.683Z,8.10
2022-10-08T03:48:48.644Z,9.10
2022-10-08T03:49:51.103Z,6.00
2022-10-08T03:52:08.581Z,9.50
2022-10-08T03:53:11.041Z,8.80
2022-10-08T03:54:14.061Z,9.20
2022-10-08T03:55:17.147Z,8.09
2022-10-08T03:56:20.567Z,8.00
2022-10-08T03:57:23.325Z,8.80
2022-10-08T03:58:25.485Z,8.09
2022-10-08T03:59:27.681Z,8.70
2022-10-08T04:00:30.550Z,8.40
2022-10-08T04:01:33.112Z,10.00
2022-10-08T04:02:36.055Z,9.10
2022-10-08T04:03:39.951Z,9.36
2022-10-08T04:04:42.164Z,7.10
2022-10-08T04:05:49.581Z,7.70
2022-10-08T04:06:53.118Z,7.40
2022-10-08T04:07:56.236Z,9.80
2022-10-08T04:08:58.601Z,9.00
2022-10-08T04:10:01.307Z,8.30
2022-10-08T04:11:04.684Z,10.36
2022-10-08T04:12:07.858Z,10.10
2022-10-08T04:13:09.988Z,7.30
2022-10-08T04:14:12.130Z,9.20
2022-10-08T04:15:14.335Z,6.30
2022-10-08T04:16:18.468Z,9.10
2022-10-08T04:17:20.997Z,8.70
2022-10-08T04:18:23.561Z,9.00
2022-10-08T04:19:25.683Z,9.00
2022-10-08T04:20:27.897Z,8.70
2022-10-08T04:21:30.009Z,9.00
2022-10-08T04:22:32.652Z,7.60
2022-10-08T04:23:36.765Z,7.90
2022-10-08T04:24:39.059Z,8.70
2022-10-08T04:25:50.544Z,7.60
2022-10-08T04:26:52.851Z,9.70
2022-10-08T04:27:54.865Z,9.40
2022-10-08T04:28:57.014Z,8.00
2022-10-08T04:29:59.157Z,8.40
2022-10-08T04:31:04.951Z,10.00
2022-10-08T04:32:07.224Z,9.20
2022-10-08T04:33:09.910Z,10.00
2022-10-08T04:34:12.210Z,9.64
2022-10-08T04:35:14.352Z,9.50
2022-10-08T04:37:32.668Z,10.50
2022-10-08T04:38:35.831Z,8.40
2022-10-08T04:39:38.740Z,9.00
2022-10-08T04:40:41.017Z,11.00
2022-10-08T04:41:43.776Z,10.18
2022-10-08T04:42:51.978Z,9.40
2022-10-08T04:43:56.661Z,10.40
2022-10-08T04:45:01.082Z,9.30
2022-10-08T04:46:03.995Z,10.50
2022-10-08T04:47:06.372Z,9.55
2022-10-08T04:48:08.514Z,9.60
2022-10-08T04:49:10.886Z,8.40
2022-10-08T04:50:15.511Z,11.00
2022-10-08T04:51:20.254Z,9.80
2022-10-08T04:52:22.541Z,10.10
2022-10-08T04:53:26.544Z,9.00
2022-10-08T04:54:29.720Z,9.30
2022-10-08T04:55:32.486Z,8.80
2022-10-08T04:56:35.771Z,10.45
2022-10-08T04:57:37.960Z,11.10
2022-10-08T04:58:41.433Z,10.20
2022-10-08T04:59:59.680Z,9.80
2022-10-08T05:00:48.895Z,9.40
2022-10-08T05:01:53.568Z,9.00
2022-10-08T05:02:55.970Z,10.40
2022-10-08T05:03:59.545Z,10.20
2022-10-08T05:05:02.726Z,10.30
2022-10-08T05:06:05.760Z,9.90
2022-10-08T05:07:08.373Z,9.09
2022-10-08T05:08:11.077Z,9.82
2022-10-08T05:09:13.367Z,9.73
2022-10-08T05:10:16.734Z,10.10
2022-10-08T05:11:20.039Z,9.50
2022-10-08T05:12:22.648Z,9.90
2022-10-08T05:13:25.881Z,10.20
2022-10-08T05:14:28.161Z,10.60
2022-10-08T05:15:30.453Z,9.10
2022-10-08T05:16:32.840Z,9.40
2022-10-08T05:17:35.471Z,12.00
2022-10-08T05:18:39.013Z,9.90
2022-10-08T05:19:41.331Z,9.30
2022-10-08T05:20:43.695Z,10.40
2022-10-08T05:21:45.994Z,10.50
2022-10-08T05:22:48.729Z,9.20
2022-10-08T05:24:00.193Z,9.80
2022-10-08T05:25:03.308Z,9.70
2022-10-08T05:26:19.822Z,8.30
2022-10-08T05:27:22.038Z,10.60
2022-10-08T05:28:24.217Z,11.70
2022-10-08T05:29:27.092Z,9.40
2022-10-08T05:30:29.265Z,11.64
2022-10-08T05:31:34.975Z,10.10
2022-10-08T05:32:38.283Z,10.80
2022-10-08T05:33:40.464Z,11.50
2022-10-08T05:34:43.208Z,11.30
2022-10-08T05:35:45.381Z,5.30
2022-10-08T05:36:47.683Z,11.00
2022-10-08T05:37:51.731Z,8.60
2022-10-08T05:38:55.349Z,10.30
2022-10-08T05:39:58.445Z,11.80
2022-10-08T05:41:12.321Z,11.30
2022-10-08T05:42:14.603Z,11.20
2022-10-08T05:43:17.220Z,9.50
2022-10-08T05:44:19.626Z,6.40
2022-10-08T05:45:22.470Z,12.40
2022-10-08T05:46:26.197Z,11.50
2022-10-08T05:47:29.073Z,12.00
2022-10-08T05:48:31.131Z,9.30
2022-10-08T05:49:33.511Z,13.10
2022-10-08T05:50:36.638Z,7.90
2022-10-08T05:51:38.975Z,12.36
2022-10-08T05:52:41.192Z,11.50
2022-10-08T05:53:45.133Z,10.80
2022-10-08T05:54:47.335Z,11.20
2022-10-08T05:55:54.679Z,11.70
2022-10-08T05:56:58.190Z,12.30
2022-10-08T05:58:00.492Z,10.80
2022-10-08T05:59:02.614Z,12.50
2022-10-08T06:00:05.913Z,11.20
2022-10-08T06:02:30.253Z,12.90
2022-10-08T06:03:33.099Z,10.82
2022-10-08T06:04:36.586Z,10.90
2022-10-08T06:05:38.811Z,12.20
2022-10-08T06:06:41.720Z,11.00
2022-10-08T06:07:44.015Z,11.30
2022-10-08T06:08:46.189Z,12.80
2022-10-08T06:09:49.357Z,12.20
2022-10-08T06:10:52.150Z,12.60
2022-10-08T06:11:54.251Z,10.70
2022-10-08T06:12:56.415Z,11.20
2022-10-08T06:13:59.264Z,12.90
2022-10-08T06:15:02.623Z,11.45
2022-10-08T06:16:09.939Z,11.90
2022-10-08T06:17:12.296Z,12.10
2022-10-08T06:18:14.740Z,11.30
2022-10-08T06:19:16.867Z,11.60
2022-10-08T06:20:20.376Z,10.10
2022-10-08T06:21:24.535Z,12.20
2022-10-08T06:22:28.246Z,11.20
2022-10-08T06:23:31.618Z,11.90
2022-10-08T06:24:34.589Z,12.00
2022-10-08T06:25:37.463Z,10.80
2022-10-08T06:26:41.402Z,10.90
2022-10-08T06:27:43.885Z,11.90
2022-10-08T06:28:46.115Z,12.40
2022-10-08T06:29:48.588Z,11.80
2022-10-08T06:30:50.934Z,10.50
2022-10-08T06:31:53.478Z,12.20
2022-10-08T06:32:56.240Z,10.09
2022-10-08T06:33:58.468Z,10.80
2022-10-08T06:35:00.633Z,11.50
2022-10-08T06:36:07.637Z,11.60
2022-10-08T06:37:09.823Z,11.10
2022-10-08T06:38:12.295Z,12.00
2022-10-08T06:39:15.361Z,12.10
2022-10-08T06:40:18.870Z,11.50
2022-10-08T06:41:21.421Z,11.40
2022-10-08T06:42:24.308Z,13.10
2022-10-08T06:43:26.745Z,12.90
2022-10-08T06:44:29.644Z,13.00
2022-10-08T06:45:31.949Z,9.70
2022-10-08T06:46:36.008Z,14.10
2022-10-08T06:47:39.066Z,14.80
2022-10-08T06:48:41.675Z,13.10
2022-10-08T06:49:45.924Z,13.10
2022-10-08T06:50:48.330Z,13.80
2022-10-08T06:51:50.588Z,13.70
2022-10-08T06:52:52.792Z,14.00
2022-10-08T06:53:58.710Z,15.60
2022-10-08T06:55:01.355Z,15.70
2022-10-08T06:57:19.179Z,13.70
2022-10-08T06:58:22.489Z,15.90
2022-10-08T06:59:26.874Z,16.10
2022-10-08T07:00:29.973Z,15.00
2022-10-08T07:01:34.168Z,15.40
2022-10-08T07:02:36.544Z,15.30
2022-10-08T07:03:38.804Z,14.70
2022-10-08T07:04:40.980Z,14.10
2022-10-08T07:05:43.234Z,12.50
2022-10-08T07:06:45.738Z,14.60
2022-10-08T07:07:47.854Z,14.80
2022-10-08T07:08:54.499Z,15.40
2022-10-08T07:09:56.666Z,14.00
2022-10-08T07:11:06.235Z,14.80
2022-10-08T07:12:08.398Z,12.90
2022-10-08T07:13:10.993Z,11.70
2022-10-08T07:14:13.313Z,12.91
2022-10-08T07:15:15.828Z,12.30
2022-10-08T07:16:21.120Z,7.40
2022-10-08T07:17:23.487Z,13.50
2022-10-08T07:18:26.796Z,14.00
2022-10-08T07:19:29.076Z,13.90
2022-10-08T07:20:32.859Z,14.40
2022-10-08T07:21:35.902Z,13.10
2022-10-08T07:22:38.057Z,13.73
2022-10-08T07:23:40.419Z,11.50
2022-10-08T07:24:42.654Z,14.60
2022-10-08T07:25:57.125Z,14.80
2022-10-08T07:26:59.846Z,13.90
2022-10-08T07:28:03.768Z,13.36
2022-10-08T07:29:08.952Z,13.80
2022-10-08T07:30:12.234Z,12.40
2022-10-08T07:31:17.487Z,14.00
2022-10-08T07:32:19.882Z,11.30
2022-10-08T07:33:23.416Z,12.20
2022-10-08T07:34:26.508Z,12.50
2022-10-08T07:35:29.675Z,12.30
2022-10-08T07:36:32.453Z,12.50
2022-10-08T07:37:34.608Z,12.40
2022-10-08T07:38:37.149Z,11.80
2022-10-08T07:39:39.245Z,10.10
2022-10-08T07:40:42.412Z,12.50
2022-10-08T07:41:44.962Z,12.73
2022-10-08T07:42:47.575Z,10.09
2022-10-08T07:43:54.890Z,11.64
2022-10-08T07:44:57.385Z,11.30
2022-10-08T07:45:59.413Z,12.30
2022-10-08T07:47:03.197Z,10.80
2022-10-08T07:48:05.568Z,8.20
2022-10-08T07:49:08.792Z,12.80
2022-10-08T07:50:11.108Z,8.90
2022-10-08T07:51:17.209Z,10.60
2022-10-08T07:52:21.023Z,12.10
2022-10-08T07:53:23.201Z,7.50
2022-10-08T07:54:25.432Z,11.10
2022-10-08T07:55:27.548Z,10.70
2022-10-08T07:56:30.832Z,11.50
2022-10-08T07:57:33.109Z,11.80
2022-10-08T07:58:35.444Z,10.70
2022-10-08T07:59:37.623Z,10.60
2022-10-08T08:00:40.208Z,11.40
2022-10-08T08:01:42.625Z,11.00
2022-10-08T08:02:50.408Z,12.60
2022-10-08T08:03:55.129Z,12.50
2022-10-08T08:04:57.949Z,10.80
2022-10-08T08:06:01.639Z,11.20
2022-10-08T08:07:04.457Z,11.00
2022-10-08T08:08:06.458Z,6.80
2022-10-08T08:09:08.949Z,10.70
2022-10-08T08:10:11.710Z,11.40
2022-10-08T08:11:15.459Z,6.80
2022-10-08T08:12:17.683Z,12.00
2022-10-08T08:13:20.111Z,11.60
2022-10-08T08:14:23.344Z,10.10
2022-10-08T08:15:26.128Z,12.50
2022-10-08T08:16:28.565Z,12.90
2022-10-08T08:17:30.782Z,10.30
2022-10-08T08:18:34.087Z,12.10
2022-10-08T08:19:36.295Z,12.30
2022-10-08T08:20:38.421Z,9.60
2022-10-08T08:21:40.920Z,11.70
2022-10-08T08:22:43.153Z,9.50
2022-10-08T08:23:46.826Z,11.30
2022-10-08T08:24:49.016Z,10.50
2022-10-08T08:25:51.170Z,10.10
2022-10-08T08:26:57.730Z,9.90
2022-10-08T08:27:59.764Z,9.30
2022-10-08T08:29:05.057Z,9.90
2022-10-08T08:30:09.378Z,8.30
2022-10-08T08:31:16.007Z,9.40
2022-10-08T08:32:19.628Z,8.80
2022-10-08T08:33:21.891Z,8.00
2022-10-08T08:34:24.328Z,5.70
2022-10-08T08:35:26.638Z,8.70
2022-10-08T08:36:32.417Z,8.30
2022-10-08T08:37:35.619Z,4.00
2022-10-08T08:38:39.034Z,6.80
2022-10-08T08:39:41.414Z,7.70
2022-10-08T08:40:43.915Z,7.10
2022-10-08T08:42:22.014Z,5.30
2022-10-08T08:43:24.626Z,6.60
2022-10-08T08:44:32.685Z,4.10
2022-10-08T08:45:46.514Z,6.90
2022-10-08T08:46:42.289Z,5.80
2022-10-08T08:49:03.957Z,6.20
2022-10-08T08:50:16.541Z,5.80
2022-10-08T08:51:18.920Z,6.70
2022-10-08T08:52:23.730Z,5.90
2022-10-08T08:53:26.987Z,6.20
2022-10-08T08:54:30.391Z,5.00
2022-10-08T08:55:34.973Z,5.50
2022-10-08T08:56:37.401Z,3.70
2022-10-08T08:58:04.337Z,4.30
2022-10-08T08:59:20.403Z,5.50
2022-10-08T09:00:30.496Z,5.20
2022-10-08T09:02:54.632Z,4.20
2022-10-08T09:04:00.509Z,5.30
2022-10-08T09:06:20.353Z,3.50
2022-10-08T09:07:24.416Z,3.80
2022-10-08T09:08:34.501Z,2.00
2022-10-08T09:09:41.146Z,2.50
2022-10-08T09:10:56.033Z,2.20
2022-10-08T09:11:58.265Z,2.90
2022-10-08T09:13:01.035Z,3.30
2022-10-08T09:14:11.934Z,3.50
2022-10-08T09:15:22.775Z,2.80
2022-10-08T09:16:28.177Z,1.50
2022-10-08T09:17:32.261Z,3.30
2022-10-08T09:18:34.489Z,4.70
2022-10-08T09:19:36.856Z,4.50
2022-10-08T09:20:40.429Z,3.80
2022-10-08T09:21:43.466Z,4.00
2022-10-08T09:22:47.312Z,5.00
2022-10-08T09:23:49.783Z,5.20
2022-10-08T09:24:57.276Z,5.27
2022-10-08T09:26:09.366Z,4.10
2022-10-08T09:27:13.767Z,5.80
2022-10-08T09:28:39.768Z,4.00
2022-10-08T09:29:42.136Z,6.00
2022-10-08T09:30:45.208Z,4.60
2022-10-08T09:31:49.996Z,4.60
2022-10-08T09:32:52.917Z,4.70
2022-10-08T09:34:14.485Z,5.10
2022-10-08T09:35:17.580Z,4.70
2022-10-08T09:36:32.542Z,3.90
2022-10-08T09:37:34.801Z,4.50
2022-10-08T09:38:36.929Z,4.20
2022-10-08T09:39:40.207Z,4.70
2022-10-08T09:40:42.554Z,4.50
2022-10-08T09:41:45.290Z,5.00
2022-10-08T09:43:06.585Z,4.60
2022-10-08T09:44:17.605Z,3.80
2022-10-08T09:46:45.303Z,4.40
2022-10-08T09:47:51.281Z,4.10
2022-10-08T09:48:56.358Z,4.20
2022-10-08T09:50:07.255Z,4.30
2022-10-08T09:51:14.480Z,5.00
2022-10-08T09:52:25.908Z,5.10
2022-10-08T09:54:51.932Z,3.80
2022-10-08T09:56:01.147Z,3.90
2022-10-08T09:57:03.244Z,3.90
2022-10-08T09:58:05.400Z,0.70
2022-10-08T09:59:09.895Z,3.40
2022-10-08T10:01:35.660Z,4.20
2022-10-08T10:02:38.734Z,4.55
2022-10-08T10:05:12.374Z,5.00
2022-10-08T10:06:20.988Z,5.50
2022-10-08T10:07:20.785Z,5.50
2022-10-08T10:08:46.659Z,6.20
2022-10-08T10:09:53.914Z,6.00
2022-10-08T10:10:56.354Z,6.90
2022-10-08T10:12:32.597Z,5.70
2022-10-08T10:13:37.727Z,5.70
2022-10-08T10:14:50.814Z,6.80
2022-10-08T10:17:32.916Z,6.10
2022-10-08T10:19:06.090Z,6.90
2022-10-08T10:20:21.778Z,6.40
2022-10-08T10:21:47.827Z,7.20
2022-10-08T10:22:58.978Z,6.00
2022-10-08T10:24:10.545Z,6.30
2022-10-08T10:26:42.823Z,5.30
2022-10-08T10:28:11.223Z,6.30
2022-10-08T10:29:16.837Z,7.10
2022-10-08T10:31:45.177Z,5.40
2022-10-08T10:32:58.491Z,6.40
2022-10-08T10:34:13.990Z,5.90
2022-10-08T10:36:34.783Z,5.80
2022-10-08T10:37:41.877Z,5.60
2022-10-08T10:38:57.280Z,5.90
2022-10-08T10:41:40.956Z,1.70
2022-10-08T10:42:51.749Z,5.60
2022-10-08T10:45:17.843Z,5.00
2022-10-08T10:47:48.670Z,5.20
2022-10-08T10:48:52.513Z,5.40
2022-10-08T10:49:56.070Z,5.70
2022-10-08T10:51:11.745Z,5.00
2022-10-08T10:54:03.110Z,4.20
2022-10-08T10:55:24.481Z,5.10
2022-10-08T10:56:30.267Z,3.80
2022-10-08T10:57:36.214Z,5.40
2022-10-08T10:59:57.586Z,3.50
2022-10-08T11:02:58.155Z,4.80
2022-10-08T11:04:04.230Z,3.30
2022-10-08T11:05:19.099Z,4.70
2022-10-08T11:06:33.975Z,4.70
2022-10-08T11:07:59.164Z,4.40
2022-10-08T11:09:11.288Z,5.30
2022-10-08T11:10:29.311Z,3.70
2022-10-08T11:12:53.814Z,3.20
2022-10-08T11:14:15.106Z,3.80
2022-10-08T11:15:24.142Z,4.20
2022-10-08T11:18:11.833Z,4.30
2022-10-08T11:19:35.970Z,3.90
2022-10-08T11:21:13.998Z,4.00
2022-10-08T11:22:27.165Z,4.70
2022-10-08T11:23:36.404Z,4.30
2022-10-08T11:24:57.694Z,4.70
2022-10-08T11:27:30.429Z,3.50
2022-10-08T11:28:57.662Z,4.10
2022-10-08T11:30:07.077Z,4.40
2022-10-08T11:31:19.466Z,3.40
2022-10-08T11:32:21.881Z,3.70
2022-10-08T11:33:24.853Z,3.90
2022-10-08T11:35:50.962Z,4.00
2022-10-08T11:37:04.807Z,4.00
2022-10-08T11:38:13.647Z,4.70
2022-10-08T11:39:23.018Z,4.00
2022-10-08T11:40:32.087Z,5.00
2022-10-08T11:41:47.890Z,4.00
2022-10-08T11:43:12.158Z,2.20
2022-10-08T11:44:17.313Z,2.30
2022-10-08T11:45:26.235Z,4.00
2022-10-08T11:46:33.265Z,2.90
2022-10-08T11:47:43.378Z,3.40
2022-10-08T11:48:45.902Z,3.80
2022-10-08T11:49:53.813Z,1.00
2022-10-08T11:51:20.332Z,3.90
2022-10-08T11:52:22.618Z,3.00
2022-10-08T11:53:24.763Z,3.60
2022-10-08T11:54:31.727Z,3.40
2022-10-08T11:55:34.562Z,3.10
2022-10-08T11:56:44.323Z,3.50
2022-10-08T11:58:07.659Z,3.20
2022-10-08T11:59:03.400Z,3.80
2022-10-08T12:01:55.122Z,2.80
2022-10-08T12:03:00.108Z,3.10
2022-10-08T12:04:19.107Z,2.80
2022-10-08T12:05:25.083Z,3.40
2022-10-08T12:06:28.824Z,3.40
2022-10-08T12:08:53.944Z,3.20
2022-10-08T12:10:09.949Z,2.80
2022-10-08T12:11:32.942Z,2.40
2022-10-08T12:12:54.256Z,2.60
2022-10-08T12:14:16.293Z,2.50
2022-10-08T12:15:30.040Z,2.60
2022-10-08T12:16:57.587Z,2.60
2022-10-08T12:18:01.545Z,3.70
2022-10-08T12:19:05.308Z,3.00
2022-10-08T12:20:22.921Z,2.80
2022-10-08T12:21:29.805Z,2.00
2022-10-08T12:22:35.899Z,3.40
2022-10-08T12:23:38.683Z,2.50
2022-10-08T12:24:49.750Z,3.00
2022-10-08T12:26:02.299Z,3.00
2022-10-08T12:27:23.794Z,3.10
2022-10-08T12:28:35.888Z,1.40
2022-10-08T12:30:00.947Z,3.10
2022-10-08T12:31:28.463Z,2.90
2022-10-08T12:34:04.446Z,2.20
2022-10-08T12:35:25.940Z,2.60
2022-10-08T12:36:41.074Z,2.60
2022-10-08T12:37:50.615Z,2.70
2022-10-08T12:39:09.250Z,3.00
2022-10-08T12:41:39.567Z,2.70
2022-10-08T12:42:42.158Z,2.10
2022-10-08T12:43:59.983Z,2.80
2022-10-08T12:45:16.831Z,2.70
2022-10-08T12:48:11.460Z,3.00
2022-10-08T12:49:41.769Z,1.90
2022-10-08T12:51:03.156Z,3.00
2022-10-08T12:52:14.082Z,2.50
2022-10-08T12:53:16.451Z,3.10
2022-10-08T12:54:23.220Z,2.20
2022-10-08T12:55:25.475Z,2.60
2022-10-08T12:56:28.628Z,3.20
2022-10-08T12:57:38.406Z,3.09
2022-10-08T12:58:42.980Z,3.10
2022-10-08T12:59:45.423Z,3.30
2022-10-08T13:00:54.433Z,3.00
2022-10-08T13:01:56.856Z,3.80
2022-10-08T13:03:04.491Z,3.40
2022-10-08T13:05:32.482Z,3.20
2022-10-08T13:06:34.773Z,2.30
2022-10-08T13:07:36.887Z,2.00
2022-10-08T13:08:42.236Z,3.00
2022-10-08T13:09:45.037Z,1.80
2022-10-08T13:10:47.435Z,2.20
2022-10-08T13:11:54.844Z,2.80
2022-10-08T13:13:04.269Z,2.40
2022-10-08T13:14:10.174Z,3.20
2022-10-08T13:16:29.499Z,2.30
2022-10-08T13:17:33.597Z,2.70
2022-10-08T13:18:38.119Z,2.00
2022-10-08T13:19:41.402Z,2.50
2022-10-08T13:20:58.231Z,2.00
2022-10-08T13:22:04.598Z,2.00
2022-10-08T13:24:42.135Z,1.70
2022-10-08T13:25:45.851Z,2.80
2022-10-08T13:28:11.202Z,2.00
2022-10-08T13:29:28.769Z,2.80
2022-10-08T13:30:31.652Z,2.40
2022-10-08T13:31:33.888Z,2.80
2022-10-08T13:32:37.280Z,2.20
2022-10-08T13:33:41.221Z,2.00
2022-10-08T13:34:57.116Z,2.10
2022-10-08T13:36:00.935Z,2.60
2022-10-08T13:37:05.662Z,2.40
2022-10-08T13:38:08.677Z,2.00
2022-10-08T13:39:28.105Z,2.50
2022-10-08T13:40:51.036Z,2.50
2022-10-08T13:43:08.259Z,2.60
2022-10-08T13:44:10.603Z,2.50
2022-10-08T13:45:20.639Z,1.30
2022-10-08T13:46:23.767Z,2.30
2022-10-08T13:47:26.300Z,1.90
2022-10-08T13:48:29.109Z,1.40
2022-10-08T13:49:32.413Z,2.00
2022-10-08T13:50:34.734Z,1.30
2022-10-08T13:51:38.051Z,2.00
2022-10-08T13:52:42.770Z,2.40
2022-10-08T13:53:46.157Z,1.70
2022-10-08T13:54:49.772Z,2.20
2022-10-08T13:55:52.657Z,2.40
2022-10-08T13:56:55.314Z,2.20
2022-10-08T13:57:59.177Z,3.10
2022-10-08T13:59:01.429Z,0.20
2022-10-08T14:00:04.772Z,2.40
2022-10-08T14:01:07.352Z,2.40
2022-10-08T14:02:11.952Z,2.10
2022-10-08T14:03:14.363Z,2.10
2022-10-08T14:04:16.590Z,1.30
2022-10-08T14:05:19.575Z,2.00
2022-10-08T14:06:21.926Z,2.00
2022-10-08T14:07:26.797Z,1.90
2022-10-08T14:08:29.214Z,2.40
2022-10-08T14:09:31.330Z,2.00
2022-10-08T14:10:33.530Z,2.00
2022-10-08T14:11:36.285Z,2.90
2022-10-08T14:12:38.529Z,2.00
2022-10-08T14:13:40.775Z,2.50
2022-10-08T14:14:47.509Z,2.80
2022-10-08T14:15:49.672Z,1.40
2022-10-08T14:16:55.408Z,2.50
2022-10-08T14:17:58.266Z,2.60
2022-10-08T14:19:03.233Z,3.00
2022-10-08T14:20:05.326Z,3.00
2022-10-08T14:21:09.818Z,1.90
2022-10-08T14:22:11.996Z,3.20
2022-10-08T14:23:14.103Z,4.40
2022-10-08T14:24:17.599Z,3.60
2022-10-08T14:25:21.445Z,1.90
2022-10-08T14:26:24.437Z,2.90
2022-10-08T14:27:26.411Z,3.80
2022-10-08T14:28:28.652Z,3.50
2022-10-08T14:29:31.450Z,3.80
2022-10-08T14:30:34.036Z,3.10
2022-10-08T14:31:37.327Z,3.70
2022-10-08T14:32:39.691Z,3.10
2022-10-08T14:33:42.026Z,4.20
2022-10-08T14:34:44.318Z,3.20
2022-10-08T14:35:52.889Z,2.80
2022-10-08T14:36:55.157Z,3.30
2022-10-08T14:37:57.625Z,3.40
2022-10-08T14:39:00.042Z,4.20
2022-10-08T14:40:04.093Z,3.00
2022-10-08T14:41:06.860Z,4.10
2022-10-08T14:42:09.104Z,3.36
2022-10-08T14:43:11.235Z,3.50
2022-10-08T14:44:15.582Z,1.00
2022-10-08T14:45:17.709Z,3.10
2022-10-08T14:46:19.943Z,3.40
2022-10-08T14:47:22.849Z,3.18
2022-10-08T14:48:25.930Z,3.20
2022-10-08T14:49:28.143Z,3.55
2022-10-08T14:50:30.391Z,3.10
2022-10-08T14:51:33.092Z,3.90
2022-10-08T14:52:39.279Z,2.27
2022-10-08T14:53:40.794Z,4.20
2022-10-08T14:54:43.326Z,2.60
2022-10-08T14:56:10.538Z,2.90
2022-10-08T14:56:53.660Z,4.50
2022-10-08T14:57:55.925Z,4.60
2022-10-08T14:58:59.093Z,2.80
2022-10-08T15:00:01.613Z,4.50
2022-10-08T15:01:03.743Z,1.90
2022-10-08T15:02:06.072Z,3.40
2022-10-08T15:03:09.018Z,4.10
2022-10-08T15:04:13.585Z,4.20
2022-10-08T15:05:17.258Z,4.90
2022-10-08T15:06:20.332Z,4.30
2022-10-08T15:07:22.505Z,4.20
2022-10-08T15:08:24.678Z,4.40
2022-10-08T15:09:26.820Z,4.20
2022-10-08T15:10:29.717Z,3.91
2022-10-08T15:11:31.882Z,5.00
2022-10-08T15:12:33.980Z,4.30
2022-10-08T15:13:36.692Z,3.90
2022-10-08T15:14:39.165Z,4.00
2022-10-08T15:15:42.791Z,5.40
2022-10-08T15:16:45.735Z,3.70
2022-10-08T15:17:48.464Z,3.00
2022-10-08T15:18:51.615Z,3.80
2022-10-08T15:19:55.154Z,4.30
2022-10-08T15:20:59.917Z,3.70
2022-10-08T15:22:03.759Z,5.00
2022-10-08T15:23:06.623Z,4.90
2022-10-08T15:24:09.257Z,5.00
2022-10-08T15:25:13.459Z,4.40
2022-10-08T15:26:16.971Z,3.90
2022-10-08T15:27:21.024Z,1.60
2022-10-08T15:28:24.023Z,4.20
2022-10-08T15:29:28.160Z,3.10
2022-10-08T15:30:30.431Z,4.10
2022-10-08T15:31:33.793Z,3.90
2022-10-08T15:32:38.394Z,3.50
2022-10-08T15:34:55.473Z,3.50
2022-10-08T15:35:58.964Z,4.70
2022-10-08T15:37:01.601Z,3.90
2022-10-08T15:38:04.461Z,2.00
2022-10-08T15:40:20.601Z,4.00